Saint George's, Canada
Current Conditions -  °F | °C
As of 8:00 AM on Thursday 23 Oct 2014 (Local Time) from CYJT Reporting Station
Scattered Clouds Scattered Clouds  
Wind Chill: 33°   Ceiling: Unl
Heat Index: 37°   Visibility: 15mi
Dew Point: 36°   Wind: 6mph
Humidity: 93%   Direction: 50°NE
Pressure: 30.37"   Gusts: NA
Location:  48.43°N, 58.5°W
Report Text: CYJT 231000Z 05005KT 15SM FEW025 SCT210 03/02 A3037 RMK SC2CI2 SLP284
Loading
Personal Weather Stations






























Interactive Weather Map New forecast layout! Learn more

10-Day Weather Forecast

Advertisements
Track Severe Weather on mobile